sensor_id;sensor_type;location;lat;lon;timestamp;P1;durP1;ratioP1;P2;durP2;ratioP2
46597;SDS011;32318;48.858;8.252;2024-03-08T00:00:45;54.65;;;20.95;;
46597;SDS011;32318;48.858;8.252;2024-03-08T00:08:45;49.15;;;20.98;;
46597;SDS011;32318;48.858;8.252;2024-03-08T00:16:46;45.72;;;16.63;;
46597;SDS011;32318;48.858;8.252;2024-03-08T00:24:46;50.47;;;19.00;;
46597;SDS011;32318;48.858;8.252;2024-03-08T00:32:46;51.97;;;19.75;;
46597;SDS011;32318;48.858;8.252;2024-03-08T00:40:46;53.28;;;20.50;;
46597;SDS011;32318;48.858;8.252;2024-03-08T00:48:47;51.10;;;19.58;;
46597;SDS011;32318;48.858;8.252;2024-03-08T00:56:47;44.42;;;19.58;;
46597;SDS011;32318;48.858;8.252;2024-03-08T01:04:47;58.97;;;20.00;;
46597;SDS011;32318;48.858;8.252;2024-03-08T01:12:48;56.28;;;20.80;;
46597;SDS011;32318;48.858;8.252;2024-03-08T01:20:49;50.15;;;18.98;;
46597;SDS011;32318;48.858;8.252;2024-03-08T01:28:50;46.65;;;19.10;;
46597;SDS011;32318;48.858;8.252;2024-03-08T01:36:50;48.25;;;17.70;;
46597;SDS011;32318;48.858;8.252;2024-03-08T01:44:50;51.05;;;19.27;;
46597;SDS011;32318;48.858;8.252;2024-03-08T01:52:51;43.83;;;17.13;;
46597;SDS011;32318;48.858;8.252;2024-03-08T02:00:52;41.72;;;17.75;;
46597;SDS011;32318;48.858;8.252;2024-03-08T02:08:53;44.55;;;16.73;;
46597;SDS011;32318;48.858;8.252;2024-03-08T02:16:53;44.15;;;19.13;;
46597;SDS011;32318;48.858;8.252;2024-03-08T02:25:00;39.17;;;16.85;;
46597;SDS011;32318;48.858;8.252;2024-03-08T02:33:02;45.90;;;17.75;;
46597;SDS011;32318;48.858;8.252;2024-03-08T02:41:03;47.10;;;18.05;;
46597;SDS011;32318;48.858;8.252;2024-03-08T02:49:04;44.28;;;16.70;;
46597;SDS011;32318;48.858;8.252;2024-03-08T02:57:05;45.15;;;16.80;;
46597;SDS011;32318;48.858;8.252;2024-03-08T03:05:07;39.25;;;17.27;;
46597;SDS011;32318;48.858;8.252;2024-03-08T03:13:09;40.70;;;16.42;;
46597;SDS011;32318;48.858;8.252;2024-03-08T03:21:09;45.85;;;18.75;;
46597;SDS011;32318;48.858;8.252;2024-03-08T03:29:10;47.10;;;18.08;;
46597;SDS011;32318;48.858;8.252;2024-03-08T03:37:11;46.42;;;18.77;;
46597;SDS011;32318;48.858;8.252;2024-03-08T03:45:14;46.30;;;18.15;;
46597;SDS011;32318;48.858;8.252;2024-03-08T03:53:14;47.53;;;18.63;;
46597;SDS011;32318;48.858;8.252;2024-03-08T04:01:14;45.33;;;17.75;;
46597;SDS011;32318;48.858;8.252;2024-03-08T04:09:15;44.67;;;18.08;;
46597;SDS011;32318;48.858;8.252;2024-03-08T04:17:15;44.75;;;17.58;;
46597;SDS011;32318;48.858;8.252;2024-03-08T04:25:15;41.78;;;16.83;;
46597;SDS011;32318;48.858;8.252;2024-03-08T04:33:15;42.30;;;16.55;;
46597;SDS011;32318;48.858;8.252;2024-03-08T04:41:18;45.55;;;17.35;;
46597;SDS011;32318;48.858;8.252;2024-03-08T04:49:18;46.93;;;17.50;;
46597;SDS011;32318;48.858;8.252;2024-03-08T04:57:18;48.42;;;18.83;;
46597;SDS011;32318;48.858;8.252;2024-03-08T05:05:19;42.58;;;17.33;;
46597;SDS011;32318;48.858;8.252;2024-03-08T05:13:19;46.05;;;17.58;;
46597;SDS011;32318;48.858;8.252;2024-03-08T05:21:19;44.03;;;17.42;;
46597;SDS011;32318;48.858;8.252;2024-03-08T05:29:20;49.13;;;17.83;;
46597;SDS011;32318;48.858;8.252;2024-03-08T05:37:20;44.97;;;16.73;;
46597;SDS011;32318;48.858;8.252;2024-03-08T05:45:21;47.20;;;17.90;;
46597;SDS011;32318;48.858;8.252;2024-03-08T05:53:21;50.08;;;17.40;;
46597;SDS011;32318;48.858;8.252;2024-03-08T06:01:21;44.60;;;16.88;;
46597;SDS011;32318;48.858;8.252;2024-03-08T06:09:21;50.80;;;17.60;;
46597;SDS011;32318;48.858;8.252;2024-03-08T06:17:23;50.83;;;18.50;;
46597;SDS011;32318;48.858;8.252;2024-03-08T06:25:25;47.28;;;16.95;;
46597;SDS011;32318;48.858;8.252;2024-03-08T06:33:25;50.97;;;19.48;;
46597;SDS011;32318;48.858;8.252;2024-03-08T06:41:26;53.25;;;17.77;;
46597;SDS011;32318;48.858;8.252;2024-03-08T06:49:27;45.60;;;16.88;;
46597;SDS011;32318;48.858;8.252;2024-03-08T06:57:27;50.75;;;17.08;;
46597;SDS011;32318;48.858;8.252;2024-03-08T07:05:29;41.58;;;15.77;;
46597;SDS011;32318;48.858;8.252;2024-03-08T07:13:30;45.30;;;17.33;;
46597;SDS011;32318;48.858;8.252;2024-03-08T07:21:31;46.45;;;17.38;;
46597;SDS011;32318;48.858;8.252;2024-03-08T07:29:32;50.75;;;19.33;;
46597;SDS011;32318;48.858;8.252;2024-03-08T07:37:33;44.28;;;17.88;;
46597;SDS011;32318;48.858;8.252;2024-03-08T07:45:34;41.88;;;15.10;;
46597;SDS011;32318;48.858;8.252;2024-03-08T07:53:35;48.00;;;18.65;;
46597;SDS011;32318;48.858;8.252;2024-03-08T08:01:36;38.05;;;16.65;;
46597;SDS011;32318;48.858;8.252;2024-03-08T08:09:36;46.03;;;17.58;;
46597;SDS011;32318;48.858;8.252;2024-03-08T08:17:37;46.95;;;17.80;;
46597;SDS011;32318;48.858;8.252;2024-03-08T08:25:38;46.30;;;17.58;;
46597;SDS011;32318;48.858;8.252;2024-03-08T08:33:39;50.35;;;17.00;;
46597;SDS011;32318;48.858;8.252;2024-03-08T08:41:40;33.08;;;13.52;;
46597;SDS011;32318;48.858;8.252;2024-03-08T08:49:41;37.00;;;15.70;;
46597;SDS011;32318;48.858;8.252;2024-03-08T08:57:43;36.47;;;13.88;;
46597;SDS011;32318;48.858;8.252;2024-03-08T09:05:44;31.20;;;13.50;;
46597;SDS011;32318;48.858;8.252;2024-03-08T09:13:44;37.05;;;14.75;;
46597;SDS011;32318;48.858;8.252;2024-03-08T09:21:46;34.92;;;14.60;;
46597;SDS011;32318;48.858;8.252;2024-03-08T09:29:46;34.55;;;13.43;;
46597;SDS011;32318;48.858;8.252;2024-03-08T09:37:47;38.88;;;15.27;;
46597;SDS011;32318;48.858;8.252;2024-03-08T09:45:50;38.42;;;15.52;;
46597;SDS011;32318;48.858;8.252;2024-03-08T09:53:51;40.93;;;15.03;;
46597;SDS011;32318;48.858;8.252;2024-03-08T10:01:54;37.83;;;14.68;;
46597;SDS011;32318;48.858;8.252;2024-03-08T10:09:58;33.67;;;14.87;;
46597;SDS011;32318;48.858;8.252;2024-03-08T10:17:59;38.27;;;15.73;;
46597;SDS011;32318;48.858;8.252;2024-03-08T10:26:10;38.88;;;15.10;;
46597;SDS011;32318;48.858;8.252;2024-03-08T10:34:14;34.08;;;14.25;;
46597;SDS011;32318;48.858;8.252;2024-03-08T10:42:16;30.63;;;13.27;;
46597;SDS011;32318;48.858;8.252;2024-03-08T10:50:22;39.38;;;14.93;;
46597;SDS011;32318;48.858;8.252;2024-03-08T10:58:24;32.50;;;13.30;;
46597;SDS011;32318;48.858;8.252;2024-03-08T11:06:45;35.28;;;13.35;;
46597;SDS011;32318;48.858;8.252;2024-03-08T11:14:53;30.20;;;12.83;;
46597;SDS011;32318;48.858;8.252;2024-03-08T11:22:54;31.08;;;13.02;;
46597;SDS011;32318;48.858;8.252;2024-03-08T11:39:01;26.02;;;10.60;;
46597;SDS011;32318;48.858;8.252;2024-03-08T11:47:10;29.33;;;11.73;;
46597;SDS011;32318;48.858;8.252;2024-03-08T11:55:11;32.47;;;12.02;;
46597;SDS011;32318;48.858;8.252;2024-03-08T12:03:12;32.03;;;12.82;;
46597;SDS011;32318;48.858;8.252;2024-03-08T12:11:13;28.15;;;10.95;;
46597;SDS011;32318;48.858;8.252;2024-03-08T12:19:14;27.20;;;10.30;;
46597;SDS011;32318;48.858;8.252;2024-03-08T12:27:19;20.85;;;7.25;;
46597;SDS011;32318;48.858;8.252;2024-03-08T12:35:20;22.13;;;9.77;;
46597;SDS011;32318;48.858;8.252;2024-03-08T12:43:22;24.80;;;9.52;;
46597;SDS011;32318;48.858;8.252;2024-03-08T12:51:22;28.65;;;10.70;;
46597;SDS011;32318;48.858;8.252;2024-03-08T12:59:22;21.25;;;7.10;;
46597;SDS011;32318;48.858;8.252;2024-03-08T13:07:24;29.02;;;10.88;;
46597;SDS011;32318;48.858;8.252;2024-03-08T13:15:28;22.98;;;10.40;;
46597;SDS011;32318;48.858;8.252;2024-03-08T13:23:30;23.45;;;10.52;;
46597;SDS011;32318;48.858;8.252;2024-03-08T13:31:30;17.23;;;7.10;;
46597;SDS011;32318;48.858;8.252;2024-03-08T13:39:33;23.67;;;9.27;;
46597;SDS011;32318;48.858;8.252;2024-03-08T13:47:40;23.75;;;10.52;;
46597;SDS011;32318;48.858;8.252;2024-03-08T13:55:41;22.38;;;9.75;;
46597;SDS011;32318;48.858;8.252;2024-03-08T14:03:41;25.90;;;10.25;;
46597;SDS011;32318;48.858;8.252;2024-03-08T14:11:41;23.98;;;10.45;;
46597;SDS011;32318;48.858;8.252;2024-03-08T14:19:45;20.13;;;8.98;;
46597;SDS011;32318;48.858;8.252;2024-03-08T14:27:45;17.40;;;7.30;;
46597;SDS011;32318;48.858;8.252;2024-03-08T14:35:46;17.33;;;5.53;;
46597;SDS011;32318;48.858;8.252;2024-03-08T14:43:47;16.40;;;7.40;;
46597;SDS011;32318;48.858;8.252;2024-03-08T14:51:48;24.10;;;8.68;;
46597;SDS011;32318;48.858;8.252;2024-03-08T14:59:49;20.33;;;8.80;;
46597;SDS011;32318;48.858;8.252;2024-03-08T15:07:50;21.40;;;7.75;;
46597;SDS011;32318;48.858;8.252;2024-03-08T15:15:50;17.45;;;6.38;;
46597;SDS011;32318;48.858;8.252;2024-03-08T15:23:57;23.30;;;8.98;;
46597;SDS011;32318;48.858;8.252;2024-03-08T15:31:57;21.17;;;9.43;;
46597;SDS011;32318;48.858;8.252;2024-03-08T15:39:58;21.15;;;9.38;;
46597;SDS011;32318;48.858;8.252;2024-03-08T15:47:58;28.42;;;12.00;;
46597;SDS011;32318;48.858;8.252;2024-03-08T15:55:58;25.10;;;9.52;;
46597;SDS011;32318;48.858;8.252;2024-03-08T16:03:59;24.90;;;10.70;;
46597;SDS011;32318;48.858;8.252;2024-03-08T16:11:59;32.58;;;10.75;;
46597;SDS011;32318;48.858;8.252;2024-03-08T16:19:59;32.08;;;12.13;;
46597;SDS011;32318;48.858;8.252;2024-03-08T16:28:00;30.45;;;11.80;;
46597;SDS011;32318;48.858;8.252;2024-03-08T16:36:00;27.77;;;11.52;;
46597;SDS011;32318;48.858;8.252;2024-03-08T16:44:02;29.35;;;11.75;;
46597;SDS011;32318;48.858;8.252;2024-03-08T16:52:04;33.30;;;12.48;;
46597;SDS011;32318;48.858;8.252;2024-03-08T17:00:05;30.30;;;12.18;;
46597;SDS011;32318;48.858;8.252;2024-03-08T17:08:06;30.30;;;13.15;;
46597;SDS011;32318;48.858;8.252;2024-03-08T17:16:06;32.78;;;11.73;;
46597;SDS011;32318;48.858;8.252;2024-03-08T17:24:07;30.87;;;12.33;;
46597;SDS011;32318;48.858;8.252;2024-03-08T17:32:11;34.60;;;11.95;;
46597;SDS011;32318;48.858;8.252;2024-03-08T17:40:12;29.77;;;9.55;;
46597;SDS011;32318;48.858;8.252;2024-03-08T17:48:17;33.28;;;11.52;;
46597;SDS011;32318;48.858;8.252;2024-03-08T17:56:17;25.65;;;9.57;;
46597;SDS011;32318;48.858;8.252;2024-03-08T18:04:18;40.58;;;12.13;;
46597;SDS011;32318;48.858;8.252;2024-03-08T18:12:19;36.17;;;13.30;;
46597;SDS011;32318;48.858;8.252;2024-03-08T18:20:24;33.42;;;13.65;;
46597;SDS011;32318;48.858;8.252;2024-03-08T18:28:29;47.33;;;16.85;;
46597;SDS011;32318;48.858;8.252;2024-03-08T18:36:30;40.17;;;15.30;;
46597;SDS011;32318;48.858;8.252;2024-03-08T18:44:31;37.60;;;14.27;;
46597;SDS011;32318;48.858;8.252;2024-03-08T18:52:31;35.15;;;15.05;;
46597;SDS011;32318;48.858;8.252;2024-03-08T19:00:32;38.72;;;15.90;;
46597;SDS011;32318;48.858;8.252;2024-03-08T19:08:41;37.25;;;15.73;;
46597;SDS011;32318;48.858;8.252;2024-03-08T19:16:45;37.55;;;15.63;;
46597;SDS011;32318;48.858;8.252;2024-03-08T19:24:46;39.40;;;15.57;;
46597;SDS011;32318;48.858;8.252;2024-03-08T19:32:48;40.28;;;14.85;;
46597;SDS011;32318;48.858;8.252;2024-03-08T19:40:49;36.70;;;15.07;;
46597;SDS011;32318;48.858;8.252;2024-03-08T19:48:52;43.90;;;16.58;;
46597;SDS011;32318;48.858;8.252;2024-03-08T19:56:56;39.63;;;15.95;;
46597;SDS011;32318;48.858;8.252;2024-03-08T20:04:56;35.25;;;15.18;;
46597;SDS011;32318;48.858;8.252;2024-03-08T20:12:57;44.00;;;15.40;;
46597;SDS011;32318;48.858;8.252;2024-03-08T20:20:57;40.60;;;16.17;;
46597;SDS011;32318;48.858;8.252;2024-03-08T20:28:59;43.00;;;16.60;;
46597;SDS011;32318;48.858;8.252;2024-03-08T20:36:59;46.17;;;17.15;;
46597;SDS011;32318;48.858;8.252;2024-03-08T20:45:00;44.38;;;18.02;;
46597;SDS011;32318;48.858;8.252;2024-03-08T20:53:04;39.35;;;16.23;;
46597;SDS011;32318;48.858;8.252;2024-03-08T21:01:10;46.35;;;17.23;;
46597;SDS011;32318;48.858;8.252;2024-03-08T21:09:11;42.97;;;18.08;;
46597;SDS011;32318;48.858;8.252;2024-03-08T21:17:12;44.35;;;17.08;;
46597;SDS011;32318;48.858;8.252;2024-03-08T21:25:12;45.75;;;17.27;;
46597;SDS011;32318;48.858;8.252;2024-03-08T21:33:16;46.47;;;16.73;;
46597;SDS011;32318;48.858;8.252;2024-03-08T21:41:17;41.40;;;16.98;;
46597;SDS011;32318;48.858;8.252;2024-03-08T21:49:17;42.65;;;16.60;;
46597;SDS011;32318;48.858;8.252;2024-03-08T21:57:17;46.25;;;17.10;;
46597;SDS011;32318;48.858;8.252;2024-03-08T22:05:19;45.20;;;17.75;;
46597;SDS011;32318;48.858;8.252;2024-03-08T22:13:21;43.67;;;17.00;;
46597;SDS011;32318;48.858;8.252;2024-03-08T22:21:21;40.85;;;16.30;;
46597;SDS011;32318;48.858;8.252;2024-03-08T22:29:21;42.15;;;16.55;;
46597;SDS011;32318;48.858;8.252;2024-03-08T22:37:22;44.05;;;15.38;;
46597;SDS011;32318;48.858;8.252;2024-03-08T22:45:23;42.92;;;16.05;;
46597;SDS011;32318;48.858;8.252;2024-03-08T22:53:23;40.70;;;16.83;;
46597;SDS011;32318;48.858;8.252;2024-03-08T23:01:24;37.17;;;14.43;;
46597;SDS011;32318;48.858;8.252;2024-03-08T23:09:28;41.40;;;15.93;;
46597;SDS011;32318;48.858;8.252;2024-03-08T23:17:29;47.33;;;15.82;;
46597;SDS011;32318;48.858;8.252;2024-03-08T23:25:29;34.28;;;14.90;;
46597;SDS011;32318;48.858;8.252;2024-03-08T23:33:29;47.70;;;18.48;;
46597;SDS011;32318;48.858;8.252;2024-03-08T23:41:30;36.00;;;15.95;;
46597;SDS011;32318;48.858;8.252;2024-03-08T23:49:30;45.13;;;17.75;;
46597;SDS011;32318;48.858;8.252;2024-03-08T23:57:30;46.35;;;18.35;;
